createdAt,value
2019-06-08T00:00:15.278Z,4.67
2019-06-08T00:02:43.045Z,6.20
2019-06-08T00:05:12.592Z,2.83
2019-06-08T00:07:40.716Z,2.40
2019-06-08T00:10:08.727Z,1.80
2019-06-08T00:12:36.518Z,1.80
2019-06-08T00:15:04.864Z,2.17
2019-06-08T00:17:38.514Z,2.50
2019-06-08T00:20:02.430Z,2.40
2019-06-08T00:22:30.257Z,2.83
2019-06-08T00:24:58.088Z,2.30
2019-06-08T00:27:25.994Z,2.93
2019-06-08T00:29:53.779Z,1.67
2019-06-08T00:32:22.635Z,2.80
2019-06-08T00:34:50.715Z,2.20
2019-06-08T00:37:18.792Z,1.30
2019-06-08T00:39:46.963Z,3.10
2019-06-08T00:42:15.104Z,2.17
2019-06-08T00:44:43.272Z,1.73
2019-06-08T00:47:11.093Z,0.83
2019-06-08T00:49:38.863Z,1.10
2019-06-08T00:52:06.655Z,1.93
2019-06-08T00:54:34.485Z,1.10
2019-06-08T00:57:02.301Z,1.13
2019-06-08T00:59:30.479Z,1.43
2019-06-08T01:01:58.768Z,2.00
2019-06-08T01:04:27.165Z,2.07
2019-06-08T01:06:55.558Z,1.20
2019-06-08T01:09:24.221Z,1.00
2019-06-08T01:11:52.504Z,1.13
2019-06-08T01:14:20.881Z,1.43
2019-06-08T01:16:49.126Z,2.27
2019-06-08T01:19:16.894Z,1.30
2019-06-08T01:21:44.703Z,1.00
2019-06-08T01:24:12.521Z,4.10
2019-06-08T01:26:40.462Z,1.47
2019-06-08T01:29:08.243Z,1.33
2019-06-08T01:31:36.102Z,1.27
2019-06-08T01:34:04.009Z,1.03
2019-06-08T01:36:31.996Z,1.17
2019-06-08T01:39:01.208Z,0.67
2019-06-08T01:41:29.641Z,1.43
2019-06-08T01:43:57.846Z,0.70
2019-06-08T01:46:25.872Z,1.23
2019-06-08T01:48:54.157Z,1.27
2019-06-08T01:51:22.554Z,1.07
2019-06-08T01:53:50.935Z,2.23
2019-06-08T01:56:18.737Z,1.47
2019-06-08T01:58:46.569Z,0.60
2019-06-08T02:01:14.410Z,1.30
2019-06-08T02:03:42.241Z,0.83
2019-06-08T02:06:10.037Z,1.63
2019-06-08T02:08:37.851Z,0.90
2019-06-08T02:11:05.727Z,2.73
2019-06-08T02:13:33.529Z,0.70
2019-06-08T02:16:01.331Z,0.60
2019-06-08T02:18:39.807Z,1.33
2019-06-08T02:20:59.743Z,0.83
2019-06-08T02:23:28.864Z,1.33
2019-06-08T02:25:57.099Z,0.90
2019-06-08T02:28:29.417Z,1.70
2019-06-08T02:30:57.494Z,1.87
2019-06-08T02:33:25.286Z,2.17
2019-06-08T02:35:53.102Z,1.10
2019-06-08T02:38:20.911Z,1.93
2019-06-08T02:40:48.681Z,1.97
2019-06-08T02:43:16.497Z,1.00
2019-06-08T02:45:44.262Z,0.87
2019-06-08T02:48:12.090Z,1.03
2019-06-08T02:50:55.527Z,0.83
2019-06-08T02:53:25.863Z,1.00
2019-06-08T02:55:55.010Z,1.30
2019-06-08T02:58:23.559Z,1.13
2019-06-08T03:00:53.951Z,1.53
2019-06-08T03:03:22.474Z,0.73
2019-06-08T03:05:51.544Z,0.80
2019-06-08T03:08:20.652Z,1.60
2019-06-08T03:10:52.325Z,1.27
2019-06-08T03:13:22.322Z,1.70
2019-06-08T03:15:50.120Z,1.30
2019-06-08T03:18:17.957Z,1.80
2019-06-08T03:20:45.750Z,1.03
2019-06-08T03:23:13.591Z,2.63
2019-06-08T03:25:51.798Z,1.00
2019-06-08T03:28:11.290Z,2.63
2019-06-08T03:30:47.382Z,0.93
2019-06-08T03:33:08.998Z,3.53
2019-06-08T03:35:46.510Z,1.07
2019-06-08T03:38:06.496Z,1.10
2019-06-08T03:40:35.797Z,1.17
2019-06-08T03:43:03.814Z,1.07
2019-06-08T03:45:34.185Z,2.00
2019-06-08T03:48:02.086Z,0.77
2019-06-08T03:50:30.054Z,0.77
2019-06-08T03:52:57.993Z,0.90
2019-06-08T03:55:25.829Z,0.97
2019-06-08T03:57:53.579Z,2.80
2019-06-08T04:00:21.749Z,1.23
2019-06-08T04:02:50.291Z,3.07
2019-06-08T04:05:18.563Z,0.83
2019-06-08T04:07:46.573Z,0.83
2019-06-08T04:10:14.885Z,1.43
2019-06-08T04:12:44.213Z,2.33
2019-06-08T04:15:13.961Z,2.93
2019-06-08T04:17:42.186Z,0.93
2019-06-08T04:20:12.461Z,0.90
2019-06-08T04:22:46.830Z,1.43
2019-06-08T04:25:15.582Z,1.77
2019-06-08T04:27:44.813Z,5.60
2019-06-08T04:30:14.342Z,3.43
2019-06-08T04:32:42.858Z,4.63
2019-06-08T04:35:11.102Z,2.23
2019-06-08T04:37:40.519Z,1.20
2019-06-08T04:40:08.717Z,1.77
2019-06-08T04:42:36.525Z,2.33
2019-06-08T04:45:06.281Z,1.17
2019-06-08T04:47:34.148Z,2.23
2019-06-08T04:50:20.887Z,1.60
2019-06-08T04:52:31.812Z,1.10
2019-06-08T04:54:59.591Z,1.13
2019-06-08T04:57:27.485Z,2.23
2019-06-08T04:59:55.286Z,2.00
2019-06-08T05:02:23.106Z,1.73
2019-06-08T05:04:50.931Z,1.20
2019-06-08T05:07:18.761Z,1.07
2019-06-08T05:09:47.168Z,1.93
2019-06-08T05:12:15.303Z,1.73
2019-06-08T05:14:43.121Z,1.23
2019-06-08T05:17:10.973Z,1.23
2019-06-08T05:19:39.227Z,0.83
2019-06-08T05:22:07.431Z,1.30
2019-06-08T05:24:35.277Z,1.13
2019-06-08T05:27:03.217Z,2.53
2019-06-08T05:29:31.017Z,1.27
2019-06-08T05:31:58.858Z,2.73
2019-06-08T05:34:26.673Z,3.27
2019-06-08T05:36:54.483Z,1.00
2019-06-08T05:39:22.265Z,1.90
2019-06-08T05:41:50.061Z,1.50
2019-06-08T05:44:18.231Z,1.03
2019-06-08T05:46:47.464Z,1.37
2019-06-08T05:49:15.968Z,1.40
2019-06-08T05:51:43.868Z,0.70
2019-06-08T05:54:11.637Z,3.50
2019-06-08T05:56:39.827Z,2.93
2019-06-08T05:59:08.043Z,3.43
2019-06-08T06:01:35.852Z,2.00
2019-06-08T06:04:03.875Z,2.30
2019-06-08T06:06:31.713Z,1.07
2019-06-08T06:08:59.523Z,1.80
2019-06-08T06:11:27.303Z,1.03
2019-06-08T06:13:55.177Z,2.63
2019-06-08T06:16:23.018Z,1.87
2019-06-08T06:18:52.182Z,2.20
2019-06-08T06:21:20.289Z,2.87
2019-06-08T06:23:49.239Z,1.23
2019-06-08T06:26:17.571Z,1.63
2019-06-08T06:28:45.650Z,2.03
2019-06-08T06:31:13.846Z,2.80
2019-06-08T06:33:42.029Z,3.67
2019-06-08T06:36:10.171Z,1.30
2019-06-08T06:38:37.974Z,1.90
2019-06-08T06:41:05.896Z,0.97
2019-06-08T06:43:33.739Z,2.50
2019-06-08T06:46:03.713Z,1.03
2019-06-08T06:48:31.544Z,1.97
2019-06-08T06:50:59.412Z,3.87
2019-06-08T06:53:27.216Z,1.93
2019-06-08T06:55:55.017Z,2.63
2019-06-08T06:58:22.942Z,1.63
2019-06-08T07:00:51.524Z,2.27
2019-06-08T07:03:20.792Z,1.93
2019-06-08T07:05:49.907Z,1.67
2019-06-08T07:08:18.052Z,1.30
2019-06-08T07:10:46.572Z,2.60
2019-06-08T07:13:14.712Z,3.83
2019-06-08T07:15:42.752Z,2.43
2019-06-08T07:18:10.573Z,1.03
2019-06-08T07:20:38.398Z,2.57
2019-06-08T07:23:06.170Z,1.87
2019-06-08T07:25:34.336Z,3.53
2019-06-08T07:28:02.154Z,1.47
2019-06-08T07:30:30.012Z,2.73
2019-06-08T07:32:59.227Z,3.20
2019-06-08T07:35:27.795Z,3.80
2019-06-08T07:37:55.658Z,2.80
2019-06-08T07:40:23.636Z,1.83
2019-06-08T07:42:53.030Z,1.10
2019-06-08T07:45:21.271Z,1.00
2019-06-08T07:47:49.944Z,1.63
2019-06-08T07:50:18.320Z,2.23
2019-06-08T07:52:46.260Z,1.10
2019-06-08T07:55:15.115Z,1.00
2019-06-08T07:57:43.093Z,1.93
2019-06-08T08:00:11.047Z,1.63
2019-06-08T08:02:38.958Z,1.70
2019-06-08T08:05:08.390Z,1.30
2019-06-08T08:07:36.311Z,2.10
2019-06-08T08:10:05.053Z,3.23
2019-06-08T08:12:32.966Z,1.67
2019-06-08T08:15:00.897Z,1.20
2019-06-08T08:17:28.795Z,3.20
2019-06-08T08:19:57.353Z,3.20
2019-06-08T08:22:29.520Z,2.93
2019-06-08T08:25:02.724Z,1.20
2019-06-08T08:27:28.089Z,1.83
2019-06-08T08:29:58.622Z,1.57
2019-06-08T08:32:28.158Z,3.60
2019-06-08T08:34:58.721Z,3.23
2019-06-08T08:37:24.878Z,3.43
2019-06-08T08:39:53.543Z,1.63
2019-06-08T08:42:21.748Z,2.20
2019-06-08T08:44:50.957Z,2.97
2019-06-08T08:47:19.323Z,1.73
2019-06-08T08:49:47.948Z,3.67
2019-06-08T08:52:17.510Z,0.93
2019-06-08T08:54:47.477Z,1.20
2019-06-08T08:57:17.959Z,4.27
2019-06-08T08:59:47.706Z,1.93
2019-06-08T09:02:18.410Z,4.07
2019-06-08T09:04:47.543Z,3.13
2019-06-08T09:07:14.624Z,2.43
2019-06-08T09:09:43.554Z,2.73
2019-06-08T09:12:11.345Z,1.80
2019-06-08T09:14:42.928Z,3.53
2019-06-08T09:17:10.778Z,2.10
2019-06-08T09:19:38.656Z,4.60
2019-06-08T09:22:08.588Z,6.93
2019-06-08T09:24:38.774Z,3.07
2019-06-08T09:27:08.027Z,3.97
2019-06-08T09:29:38.601Z,2.20
2019-06-08T09:32:08.178Z,1.90
2019-06-08T09:34:38.378Z,3.50
2019-06-08T09:37:07.842Z,3.70
2019-06-08T09:39:35.402Z,2.77
2019-06-08T09:42:04.876Z,2.63
2019-06-08T09:44:32.988Z,3.40
2019-06-08T09:47:05.665Z,1.83
2019-06-08T09:49:30.504Z,3.83
2019-06-08T09:52:00.414Z,4.40
2019-06-08T09:54:28.336Z,2.95
2019-06-08T09:57:00.915Z,4.50
2019-06-08T09:59:28.359Z,2.37
2019-06-08T10:02:02.971Z,5.40
2019-06-08T10:04:28.727Z,2.83
2019-06-08T10:06:56.849Z,3.60
2019-06-08T10:09:25.102Z,4.75
2019-06-08T10:11:54.181Z,4.92
2019-06-08T10:14:22.460Z,4.12
2019-06-08T10:16:50.330Z,3.85
2019-06-08T10:19:18.774Z,2.52
2019-06-08T10:21:48.193Z,2.80
2019-06-08T10:24:16.473Z,2.15
2019-06-08T10:26:44.287Z,2.27
2019-06-08T10:29:12.126Z,3.65
2019-06-08T10:31:43.636Z,5.37
2019-06-08T10:34:11.082Z,2.92
2019-06-08T10:36:39.372Z,2.35
2019-06-08T10:39:11.452Z,2.72
2019-06-08T10:41:38.883Z,7.30
2019-06-08T10:44:11.160Z,3.70
2019-06-08T10:46:40.288Z,4.40
2019-06-08T10:49:09.577Z,2.33
2019-06-08T10:51:40.171Z,5.78
2019-06-08T10:54:09.003Z,2.83
2019-06-08T10:56:38.394Z,3.02
2019-06-08T10:59:09.955Z,2.00
2019-06-08T11:01:35.339Z,2.27
2019-06-08T11:04:03.386Z,1.60
2019-06-08T11:06:32.863Z,3.12
2019-06-08T11:09:05.192Z,1.67
2019-06-08T11:11:31.011Z,3.25
2019-06-08T11:14:00.940Z,3.10
2019-06-08T11:16:28.747Z,3.37
2019-06-08T11:18:59.091Z,2.83
2019-06-08T11:21:28.619Z,2.58
2019-06-08T11:24:07.564Z,15.72
2019-06-08T11:26:28.951Z,2.72
2019-06-08T11:28:58.608Z,2.52
2019-06-08T11:31:28.910Z,5.67
2019-06-08T11:33:58.885Z,2.85
2019-06-08T11:36:28.193Z,1.92
2019-06-08T11:38:58.785Z,2.77
2019-06-08T11:41:27.810Z,1.87
2019-06-08T11:43:59.605Z,1.80
2019-06-08T11:46:28.064Z,3.45
2019-06-08T11:48:57.670Z,2.10
2019-06-08T11:51:24.989Z,2.05
2019-06-08T11:53:53.049Z,4.53
2019-06-08T11:56:22.424Z,2.95
2019-06-08T11:58:53.378Z,2.72
2019-06-08T12:01:21.242Z,1.87
2019-06-08T12:03:49.067Z,3.83
2019-06-08T12:06:18.597Z,4.15
2019-06-08T12:08:47.326Z,4.00
2019-06-08T12:11:17.260Z,1.70
2019-06-08T12:13:46.920Z,2.42
2019-06-08T12:16:19.718Z,3.15
2019-06-08T12:18:44.777Z,3.12
2019-06-08T12:21:13.319Z,2.77
2019-06-08T12:23:42.414Z,1.45
2019-06-08T12:26:10.268Z,2.12
2019-06-08T12:28:38.226Z,3.05
2019-06-08T12:31:11.408Z,2.37
2019-06-08T12:33:38.953Z,1.82
2019-06-08T12:36:08.521Z,2.85
2019-06-08T12:38:37.921Z,2.45
2019-06-08T12:41:07.938Z,1.87
2019-06-08T12:43:34.874Z,2.60
2019-06-08T12:46:02.698Z,2.40
2019-06-08T12:48:30.493Z,2.17
2019-06-08T12:50:58.330Z,3.72
2019-06-08T12:53:28.152Z,2.60
2019-06-08T12:55:57.901Z,3.08
2019-06-08T12:58:27.593Z,1.70
2019-06-08T13:00:57.845Z,1.95
2019-06-08T13:03:25.034Z,1.82
2019-06-08T13:05:52.842Z,1.98
2019-06-08T13:08:21.853Z,4.35
2019-06-08T13:10:50.096Z,4.00
2019-06-08T13:13:20.002Z,6.28
2019-06-08T13:15:48.402Z,1.77
2019-06-08T13:18:17.678Z,3.65
2019-06-08T13:20:51.471Z,3.33
2019-06-08T13:23:19.637Z,3.65
2019-06-08T13:25:48.030Z,1.77
2019-06-08T13:28:19.402Z,1.95
2019-06-08T13:30:47.697Z,3.55
2019-06-08T13:33:16.198Z,3.35
2019-06-08T13:35:44.406Z,2.62
2019-06-08T13:38:12.662Z,2.45
2019-06-08T13:40:40.852Z,2.62
2019-06-08T13:43:08.697Z,2.83
2019-06-08T13:45:39.106Z,3.77
2019-06-08T13:48:08.725Z,2.62
2019-06-08T13:50:35.989Z,2.12
2019-06-08T13:53:03.806Z,5.10
2019-06-08T13:55:47.726Z,2.15
2019-06-08T13:58:01.310Z,2.45
2019-06-08T14:00:38.135Z,2.60
2019-06-08T14:03:08.417Z,2.05
2019-06-08T14:05:38.823Z,4.35
2019-06-08T14:08:10.610Z,2.80
2019-06-08T14:10:38.868Z,3.07
2019-06-08T14:13:07.991Z,1.57
2019-06-08T14:15:37.896Z,3.67
2019-06-08T14:18:05.555Z,3.20
2019-06-08T14:20:34.527Z,2.43
2019-06-08T14:23:03.349Z,2.50
2019-06-08T14:25:46.643Z,2.50
2019-06-08T14:28:00.898Z,3.90
2019-06-08T14:30:32.888Z,3.00
2019-06-08T14:32:58.427Z,3.17
2019-06-08T14:35:27.151Z,3.53
2019-06-08T14:37:57.832Z,2.63
2019-06-08T14:40:31.025Z,2.70
2019-06-08T14:42:55.316Z,2.17
2019-06-08T14:45:23.124Z,3.07
2019-06-08T14:47:50.975Z,2.97
2019-06-08T14:50:21.138Z,3.23
2019-06-08T14:52:50.423Z,2.67
2019-06-08T14:55:20.066Z,2.20
2019-06-08T14:57:48.258Z,1.67
2019-06-08T15:00:22.595Z,3.20
2019-06-08T15:02:50.849Z,2.13
2019-06-08T15:05:19.918Z,3.63
2019-06-08T15:07:48.666Z,2.40
2019-06-08T15:10:18.316Z,3.23
2019-06-08T15:12:48.756Z,2.60
2019-06-08T15:15:18.319Z,7.73
2019-06-08T15:17:47.731Z,3.30
2019-06-08T15:20:17.597Z,3.20
2019-06-08T15:22:45.589Z,2.80
2019-06-08T15:25:13.417Z,1.70
2019-06-08T15:27:41.226Z,2.33
2019-06-08T15:30:10.511Z,3.70
2019-06-08T15:32:38.774Z,3.07
2019-06-08T15:35:08.089Z,2.00
2019-06-08T15:37:37.952Z,3.40
2019-06-08T15:40:07.809Z,3.33
2019-06-08T15:42:36.001Z,3.37
2019-06-08T15:45:08.088Z,3.33
2019-06-08T15:47:35.014Z,3.47
2019-06-08T15:50:03.155Z,1.10
2019-06-08T15:52:32.656Z,3.80
2019-06-08T15:55:01.546Z,3.07
2019-06-08T15:57:34.041Z,1.47
2019-06-08T15:59:59.574Z,5.17
2019-06-08T16:02:27.629Z,2.70
2019-06-08T16:04:55.838Z,3.77
2019-06-08T16:07:28.572Z,3.43
2019-06-08T16:09:53.446Z,3.30
2019-06-08T16:12:21.260Z,2.33
2019-06-08T16:14:49.070Z,4.03
2019-06-08T16:17:16.856Z,2.80
2019-06-08T16:19:44.656Z,6.33
2019-06-08T16:22:12.510Z,3.13
2019-06-08T16:24:40.395Z,1.80
2019-06-08T16:27:08.188Z,2.63
2019-06-08T16:29:36.055Z,3.87
2019-06-08T16:32:03.925Z,2.90
2019-06-08T16:34:31.796Z,2.03
2019-06-08T16:36:59.729Z,2.03
2019-06-08T16:39:28.570Z,1.93
2019-06-08T16:41:56.900Z,3.27
2019-06-08T16:44:24.678Z,2.47
2019-06-08T16:46:52.509Z,3.03
2019-06-08T16:49:20.324Z,3.80
2019-06-08T16:51:48.212Z,2.00
2019-06-08T16:54:16.090Z,3.03
2019-06-08T16:56:43.877Z,2.63
2019-06-08T16:59:11.722Z,3.93
2019-06-08T17:01:39.503Z,1.90
2019-06-08T17:04:07.368Z,2.73
2019-06-08T17:06:35.327Z,2.03
2019-06-08T17:09:04.728Z,2.87
2019-06-08T17:11:33.685Z,3.00
2019-06-08T17:14:01.924Z,2.37
2019-06-08T17:16:30.039Z,2.07
2019-06-08T17:18:58.248Z,2.00
2019-06-08T17:21:26.089Z,2.03
2019-06-08T17:23:53.875Z,3.00
2019-06-08T17:26:21.635Z,3.00
2019-06-08T17:28:49.594Z,2.23
2019-06-08T17:31:17.510Z,3.97
2019-06-08T17:33:45.330Z,2.23
2019-06-08T17:36:13.164Z,3.73
2019-06-08T17:38:41.462Z,2.83
2019-06-08T17:41:09.784Z,2.33
2019-06-08T17:43:38.223Z,3.07
2019-06-08T17:46:06.334Z,3.73
2019-06-08T17:48:34.916Z,2.13
2019-06-08T17:51:03.351Z,2.90
2019-06-08T17:53:31.205Z,2.43
2019-06-08T17:55:59.065Z,3.50
2019-06-08T17:58:27.016Z,3.27
2019-06-08T18:00:54.821Z,2.80
2019-06-08T18:03:22.751Z,2.53
2019-06-08T18:05:50.585Z,3.60
2019-06-08T18:08:18.400Z,2.40
2019-06-08T18:10:48.191Z,3.07
2019-06-08T18:13:18.064Z,3.03
2019-06-08T18:15:48.077Z,3.43
2019-06-08T18:18:17.648Z,2.20
2019-06-08T18:20:45.343Z,3.50
2019-06-08T18:23:13.204Z,2.83
2019-06-08T18:25:42.115Z,2.87
2019-06-08T18:28:13.598Z,2.83
2019-06-08T18:30:42.913Z,2.50
2019-06-08T18:33:10.405Z,3.77
2019-06-08T18:35:41.234Z,4.13
2019-06-08T18:38:08.029Z,4.17
2019-06-08T18:40:37.910Z,3.07
2019-06-08T18:43:07.580Z,3.57
2019-06-08T18:45:38.073Z,2.67
2019-06-08T18:48:07.142Z,2.53
2019-06-08T18:50:38.054Z,2.07
2019-06-08T18:53:07.116Z,3.37
2019-06-08T18:55:36.278Z,3.20
2019-06-08T18:58:17.634Z,3.50
2019-06-08T19:00:39.979Z,2.73
2019-06-08T19:03:08.455Z,3.67
2019-06-08T19:05:40.300Z,5.10
2019-06-08T19:08:09.483Z,2.17
2019-06-08T19:10:40.693Z,2.83
2019-06-08T19:13:08.969Z,2.90
2019-06-08T19:15:42.254Z,2.67
2019-06-08T19:18:08.144Z,4.00
2019-06-08T19:20:40.783Z,3.27
2019-06-08T19:23:09.130Z,4.50
2019-06-08T19:25:42.152Z,5.13
2019-06-08T19:28:07.794Z,3.20
2019-06-08T19:30:39.377Z,4.53
2019-06-08T19:33:07.332Z,4.37
2019-06-08T19:35:35.668Z,3.93
2019-06-08T19:38:03.477Z,3.20
2019-06-08T19:40:31.262Z,4.53
2019-06-08T19:43:01.394Z,5.77
2019-06-08T19:45:28.799Z,3.50
2019-06-08T19:47:57.726Z,3.87
2019-06-08T19:50:28.739Z,3.60
2019-06-08T19:52:57.837Z,4.53
2019-06-08T19:55:25.551Z,4.07
2019-06-08T19:57:53.387Z,7.33
2019-06-08T20:00:21.750Z,4.67
2019-06-08T20:02:53.367Z,5.17
2019-06-08T20:05:19.441Z,4.87
2019-06-08T20:07:47.290Z,2.90
2019-06-08T20:10:17.632Z,10.30
2019-06-08T20:12:46.052Z,18.93
2019-06-08T20:15:15.918Z,28.93
2019-06-08T20:17:48.507Z,29.80
2019-06-08T20:20:18.188Z,30.30
2019-06-08T20:22:48.735Z,35.20
2019-06-08T20:25:17.736Z,26.23
2019-06-08T20:27:48.434Z,15.63
2019-06-08T20:30:17.389Z,9.67
2019-06-08T20:32:47.205Z,7.63
2019-06-08T20:35:17.320Z,5.70
2019-06-08T20:37:45.750Z,9.80
2019-06-08T20:40:14.446Z,9.87
2019-06-08T20:42:44.070Z,5.67
2019-06-08T20:45:12.900Z,5.30
2019-06-08T20:47:42.057Z,3.80
2019-06-08T20:50:10.605Z,4.87
2019-06-08T20:52:38.434Z,6.40
2019-06-08T20:55:07.779Z,6.77
2019-06-08T20:57:36.014Z,5.93
2019-06-08T21:00:09.133Z,5.30
2019-06-08T21:02:37.223Z,10.00
2019-06-08T21:05:07.663Z,13.43
2019-06-08T21:07:35.316Z,9.60
2019-06-08T21:10:04.434Z,8.03
2019-06-08T21:12:32.228Z,7.10
2019-06-08T21:15:00.126Z,7.07
2019-06-08T21:17:27.979Z,7.73
2019-06-08T21:19:57.953Z,7.40
2019-06-08T21:22:27.590Z,7.37
2019-06-08T21:24:59.735Z,8.00
2019-06-08T21:27:24.918Z,8.70
2019-06-08T21:29:59.872Z,8.30
2019-06-08T21:32:22.505Z,10.80
2019-06-08T21:34:52.152Z,11.47
2019-06-08T21:37:20.023Z,10.37
2019-06-08T21:39:50.495Z,8.70
2019-06-08T21:42:17.547Z,8.67
2019-06-08T21:44:47.650Z,7.17
2019-06-08T21:47:15.113Z,9.83
2019-06-08T21:49:43.036Z,7.63
2019-06-08T21:52:10.846Z,7.67
2019-06-08T21:54:38.655Z,6.20
2019-06-08T21:57:09.020Z,7.50
2019-06-08T21:59:37.860Z,8.90
2019-06-08T22:02:08.339Z,8.43
2019-06-08T22:04:37.230Z,8.10
2019-06-08T22:07:07.083Z,8.10
2019-06-08T22:09:37.312Z,7.90
2019-06-08T22:12:07.090Z,9.00
2019-06-08T22:14:34.810Z,8.10
2019-06-08T22:17:03.262Z,6.83
2019-06-08T22:19:31.820Z,4.30
2019-06-08T22:22:01.794Z,5.17
2019-06-08T22:24:29.287Z,6.23
2019-06-08T22:26:58.568Z,5.13
2019-06-08T22:29:27.604Z,5.80
2019-06-08T22:31:55.906Z,6.67
2019-06-08T22:34:23.751Z,4.70
2019-06-08T22:36:52.592Z,5.80
2019-06-08T22:39:21.241Z,5.37
2019-06-08T22:41:49.040Z,5.73
2019-06-08T22:44:17.745Z,5.77
2019-06-08T22:46:47.838Z,3.87
2019-06-08T22:49:15.756Z,6.23
2019-06-08T22:51:43.559Z,4.70
2019-06-08T22:54:11.343Z,5.70
2019-06-08T22:56:39.438Z,9.23
2019-06-08T22:59:09.168Z,8.07
2019-06-08T23:01:38.361Z,10.83
2019-06-08T23:04:09.003Z,9.03
2019-06-08T23:06:38.470Z,5.63
2019-06-08T23:09:08.739Z,11.50
2019-06-08T23:11:37.567Z,8.67
2019-06-08T23:14:12.734Z,10.47
2019-06-08T23:16:35.535Z,8.33
2019-06-08T23:19:03.464Z,7.90
2019-06-08T23:21:31.267Z,7.10
2019-06-08T23:24:00.993Z,7.43
2019-06-08T23:26:30.147Z,8.23
2019-06-08T23:28:58.125Z,8.33
2019-06-08T23:31:28.961Z,9.80
2019-06-08T23:33:57.164Z,7.83
2019-06-08T23:36:51.616Z,9.13
2019-06-08T23:38:55.182Z,7.33
2019-06-08T23:41:22.960Z,4.90
2019-06-08T23:43:51.587Z,6.17
2019-06-08T23:46:19.397Z,5.27
2019-06-08T23:48:48.448Z,3.87
2019-06-08T23:51:18.125Z,5.80
2019-06-08T23:53:47.762Z,5.43
2019-06-08T23:56:18.135Z,8.60
2019-06-08T23:58:47.998Z,4.03
